Time;durP1;ratioP1;P1;durP2;ratioP2;P2;SDS_P1;SDS_P2;PMS_P1;PMS_P2;Temp;Humidity;BMP_temperature;BMP_pressure;BME280_temperature;BME280_humidity;BME280_pressure;Samples;Min_cycle;Max_cycle;Signal;HPM_P1;HPM_P2
2021/10/11 00:00:05;;;;;;;15.85;4.95;;;;;;;19.33;40.64;103252.47;4897756;29;20028;-84
2021/10/11 00:02:31;;;;;;;13.10;4.40;;;;;;;19.28;40.99;103250.63;4897674;29;20069;-82
2021/10/11 00:04:57;;;;;;;25.60;4.88;;;;;;;19.24;41.17;103246.84;4897405;29;20693;-72
2021/10/11 00:07:22;;;;;;;17.52;4.75;;;;;;;19.25;41.03;103248.47;4877558;29;20500;-74
2021/10/11 00:09:48;;;;;;;12.55;4.32;;;;;;;19.18;41.21;103250.84;4877701;29;20166;-72
2021/10/11 00:12:14;;;;;;;21.08;4.78;;;;;;;19.12;41.38;103249.34;4878897;29;20053;-73
2021/10/11 00:14:40;;;;;;;19.45;5.10;;;;;;;18.96;41.65;103254.38;4878662;29;20041;-72
2021/10/11 00:17:05;;;;;;;16.65;4.90;;;;;;;19.03;41.48;103251.19;4878947;29;20029;-85
2021/10/11 00:19:35;;;;;;;14.43;5.78;;;;;;;18.98;41.49;103252.13;4877710;29;20154;-72
2021/10/11 00:22:02;;;;;;;18.95;4.90;;;;;;;19.03;41.60;103253.94;4878810;29;20104;-72
2021/10/11 00:24:28;;;;;;;13.30;4.38;;;;;;;19.05;41.33;103248.94;4878855;29;20500;-84
2021/10/11 00:26:54;;;;;;;18.00;4.05;;;;;;;19.04;41.57;103247.28;4878799;29;20041;-73
2021/10/11 00:29:20;;;;;;;11.93;3.67;;;;;;;19.07;41.48;103253.03;4878774;29;20029;-72
2021/10/11 00:31:46;;;;;;;14.95;4.32;;;;;;;19.10;41.34;103251.59;4878744;29;20028;-72
2021/10/11 00:34:11;;;;;;;9.63;5.35;;;;;;;19.06;41.21;103254.16;4878801;29;20433;-73
2021/10/11 00:36:37;;;;;;;21.80;5.40;;;;;;;19.04;41.41;103252.81;4878700;29;20495;-71
2021/10/11 00:39:03;;;;;;;15.80;5.15;;;;;;;19.00;41.38;103249.03;4878748;29;20032;-72
2021/10/11 00:41:31;;;;;;;14.20;5.10;;;;;;;18.95;41.44;103247.19;4878717;29;20025;-79
2021/10/11 00:44:01;;;;;;;15.18;4.65;;;;;;;18.85;41.77;103250.19;4878638;29;20115;-72
2021/10/11 00:46:27;;;;;;;16.27;4.32;;;;;;;18.79;41.89;103249.47;4878728;29;20029;-72
2021/10/11 00:48:53;;;;;;;15.90;4.50;;;;;;;18.85;41.78;103247.41;4877326;29;20427;-72
2021/10/11 00:51:18;;;;;;;13.52;4.53;;;;;;;18.79;41.80;103246.69;4878586;29;20041;-72
2021/10/11 00:53:44;;;;;;;17.35;4.63;;;;;;;18.80;42.06;103245.56;4878556;29;20057;-72
2021/10/11 00:56:10;;;;;;;12.95;4.47;;;;;;;18.89;41.58;103255.91;4878600;29;20033;-84
2021/10/11 00:58:36;;;;;;;16.15;4.50;;;;;;;18.90;41.47;103255.63;4878611;29;20033;-72
2021/10/11 01:01:02;;;;;;;14.90;5.47;;;;;;;18.90;42.01;103252.84;4878525;29;20381;-72
2021/10/11 01:03:28;;;;;;;19.83;5.10;;;;;;;18.90;41.63;103263.94;4878591;29;20040;-72
2021/10/11 01:05:54;;;;;;;12.75;4.00;;;;;;;18.90;41.70;103265.88;4881190;29;20060;-73
2021/10/11 01:08:20;;;;;;;14.10;4.93;;;;;;;18.87;41.79;103267.31;4897032;29;20025;-73
2021/10/11 01:10:47;;;;;;;14.15;5.70;;;;;;;18.82;41.86;103262.72;4897015;29;20040;-72
2021/10/11 01:13:13;;;;;;;14.48;5.13;;;;;;;18.68;42.07;103269.38;4897050;29;20119;-73
2021/10/11 01:15:39;;;;;;;20.83;5.00;;;;;;;18.71;42.22;103264.03;4897050;29;20064;-73
2021/10/11 01:18:05;;;;;;;14.63;5.22;;;;;;;18.65;42.31;103265.22;4897174;29;20056;-83
2021/10/11 01:20:30;;;;;;;15.63;5.07;;;;;;;18.62;42.60;103265.03;4900275;29;20456;-72
2021/10/11 01:22:56;;;;;;;17.63;5.13;;;;;;;18.71;42.36;103266.78;4900396;29;20437;-73
2021/10/11 01:25:22;;;;;;;10.13;4.28;;;;;;;18.66;42.57;103274.38;4900503;29;20032;-72
2021/10/11 01:27:47;;;;;;;14.85;4.93;;;;;;;18.62;42.54;103263.06;4900310;29;20079;-72
2021/10/11 01:30:15;;;;;;;14.95;4.95;;;;;;;18.62;42.70;103271.38;4883530;29;20033;-72
2021/10/11 01:32:42;;;;;;;15.98;5.22;;;;;;;18.62;42.40;103270.56;4883283;29;20036;-72
2021/10/11 01:35:08;;;;;;;16.02;5.25;;;;;;;18.57;42.85;103263.16;4900448;29;20039;-72
2021/10/11 01:37:35;;;;;;;20.75;5.57;;;;;;;18.47;42.95;103257.84;4883331;29;20079;-73
2021/10/11 01:40:07;;;;;;;19.42;8.40;;;;;;;18.43;43.18;103262.31;4900166;29;20033;-72
2021/10/11 01:42:33;;;;;;;15.43;4.78;;;;;;;18.52;42.92;103255.81;4900151;29;20032;-72
2021/10/11 01:45:00;;;;;;;16.95;4.95;;;;;;;18.53;42.80;103253.84;4900019;29;20084;-72
2021/10/11 01:47:26;;;;;;;20.88;4.80;;;;;;;18.56;42.66;103262.34;4900165;29;20039;-72
2021/10/11 01:49:53;;;;;;;14.27;4.85;;;;;;;18.60;42.39;103257.03;4900060;29;20471;-72
2021/10/11 01:52:18;;;;;;;14.55;4.80;;;;;;;18.55;42.75;103251.59;4899881;29;20040;-72
2021/10/11 01:54:44;;;;;;;15.02;5.13;;;;;;;18.61;42.44;103255.09;4899968;29;20444;-86
2021/10/11 01:57:11;;;;;;;10.48;4.13;;;;;;;18.64;42.15;103260.00;4899861;29;20024;-72
2021/10/11 01:59:36;;;;;;;12.75;4.32;;;;;;;18.61;42.42;103258.66;4899899;29;20062;-72
2021/10/11 02:02:03;;;;;;;15.18;5.13;;;;;;;18.62;42.46;103248.41;4899838;29;20068;-73
2021/10/11 02:04:30;;;;;;;19.50;5.55;;;;;;;18.54;42.61;103241.66;4883243;29;20032;-72
2021/10/11 02:06:56;;;;;;;16.40;4.18;;;;;;;18.55;42.40;103246.03;4898877;29;20148;-73
2021/10/11 02:09:21;;;;;;;16.33;5.18;;;;;;;18.52;42.56;103238.38;4898666;29;20032;-77
2021/10/11 02:11:47;;;;;;;16.17;4.55;;;;;;;18.46;42.54;103240.41;4898635;29;20145;-72
2021/10/11 02:14:13;;;;;;;13.77;4.80;;;;;;;18.47;42.58;103244.00;4898531;29;20033;-72
2021/10/11 02:16:38;;;;;;;12.18;4.97;;;;;;;18.45;42.57;103235.19;4898570;29;20104;-72
2021/10/11 02:19:04;;;;;;;20.70;4.65;;;;;;;18.44;42.64;103228.81;4898373;29;20040;-72
2021/10/11 02:21:30;;;;;;;17.02;4.07;;;;;;;18.47;42.76;103228.19;4881724;29;20028;-75
2021/10/11 02:23:56;;;;;;;19.00;5.30;;;;;;;18.47;42.58;103222.66;4898226;29;20475;-72
2021/10/11 02:26:23;;;;;;;15.15;5.43;;;;;;;18.45;42.48;103224.94;4898341;29;20646;-72
2021/10/11 02:28:50;;;;;;;20.05;5.07;;;;;;;18.44;42.68;103226.06;4898254;29;20037;-72
2021/10/11 02:31:17;;;;;;;13.25;4.40;;;;;;;18.40;42.91;103215.91;4880369;29;20399;-73
2021/10/11 02:33:43;;;;;;;15.10;4.50;;;;;;;18.35;42.97;103210.44;4898206;29;20029;-72
2021/10/11 02:36:08;;;;;;;17.05;4.30;;;;;;;18.35;42.84;103208.50;4881445;29;20051;-75
2021/10/11 02:38:34;;;;;;;37.38;7.18;;;;;;;18.38;43.02;103212.63;4881397;29;20119;-73
2021/10/11 02:40:59;;;;;;;13.38;5.18;;;;;;;18.37;42.79;103209.03;4898276;29;20032;-72
2021/10/11 02:43:25;;;;;;;14.23;5.35;;;;;;;18.34;43.04;103214.34;4898132;29;20032;-77
2021/10/11 02:45:52;;;;;;;15.00;4.80;;;;;;;18.28;42.98;103211.66;4898148;29;20060;-73
2021/10/11 02:48:18;;;;;;;13.82;4.20;;;;;;;18.38;42.99;103209.84;4898054;29;20296;-85
2021/10/11 02:50:43;;;;;;;18.02;6.32;;;;;;;18.39;42.81;103200.41;4897950;29;20029;-73
2021/10/11 02:53:09;;;;;;;14.05;4.40;;;;;;;18.53;42.58;103206.78;4897954;29;20040;-72
2021/10/11 02:55:34;;;;;;;13.23;5.10;;;;;;;18.45;42.80;103210.28;4897966;29;20536;-72
2021/10/11 02:58:00;;;;;;;16.30;4.72;;;;;;;18.40;43.01;103218.66;4897880;29;20033;-73
2021/10/11 03:00:26;;;;;;;18.60;5.30;;;;;;;18.30;42.96;103214.97;4881094;29;20033;-72
2021/10/11 03:02:51;;;;;;;19.23;4.57;;;;;;;18.29;43.19;103206.97;4897734;29;20035;-73
2021/10/11 03:05:17;;;;;;;14.60;4.72;;;;;;;18.45;42.91;103207.50;4897668;29;20065;-71
2021/10/11 03:07:43;;;;;;;15.55;5.15;;;;;;;18.48;42.66;103207.69;4852215;29;1369153;-72
2021/10/11 03:10:08;;;;;;;19.05;6.30;;;;;;;18.53;42.57;103206.78;4898544;29;20044;-78
2021/10/11 03:12:35;;;;;;;19.40;5.07;;;;;;;18.48;42.65;103201.34;4898479;29;20167;-73
2021/10/11 03:15:02;;;;;;;12.35;4.20;;;;;;;18.39;43.15;103201.25;4898418;29;20084;-83
2021/10/11 03:17:28;;;;;;;10.70;4.20;;;;;;;18.34;43.14;103189.44;4898351;29;20111;-72
2021/10/11 03:19:53;;;;;;;17.83;4.68;;;;;;;18.35;42.96;103193.84;4898300;29;20099;-72
2021/10/11 03:22:19;;;;;;;11.98;4.80;;;;;;;18.38;42.98;103193.25;4898206;29;20120;-72
2021/10/11 03:24:45;;;;;;;14.45;5.07;;;;;;;18.28;43.21;103189.53;4898396;29;20104;-72
2021/10/11 03:27:10;;;;;;;18.50;5.47;;;;;;;18.12;43.73;103199.25;4898561;29;20033;-73
2021/10/11 03:29:36;;;;;;;18.13;5.05;;;;;;;18.27;43.10;103198.13;4898153;29;20028;-72
2021/10/11 03:32:01;;;;;;;14.52;4.22;;;;;;;18.34;42.84;103192.19;4898122;29;20532;-73
2021/10/11 03:34:27;;;;;;;13.40;4.53;;;;;;;18.33;43.00;103201.63;4898143;29;20043;-71
2021/10/11 03:36:53;;;;;;;14.50;4.40;;;;;;;18.21;43.10;103191.91;4881298;29;20028;-73
2021/10/11 03:39:18;;;;;;;12.10;4.15;;;;;;;18.12;43.27;103196.47;4898027;29;20037;-73
2021/10/11 03:41:44;;;;;;;16.60;5.38;;;;;;;18.22;43.02;103196.31;4880753;29;20609;-72
2021/10/11 03:44:10;;;;;;;16.85;5.00;;;;;;;18.21;43.07;103191.06;4880946;29;20380;-72
2021/10/11 03:46:35;;;;;;;19.92;5.22;;;;;;;18.27;42.84;103187.88;4881144;29;20070;-72
2021/10/11 03:49:04;;;;;;;15.27;4.95;;;;;;;18.16;43.20;103191.16;4897862;29;20032;-72
2021/10/11 03:51:31;;;;;;;10.70;5.07;;;;;;;18.16;43.21;103191.16;4881065;29;20033;-72
2021/10/11 03:53:57;;;;;;;18.25;4.85;;;;;;;18.20;43.08;103186.66;4897784;29;20035;-73
2021/10/11 03:56:22;;;;;;;16.52;4.97;;;;;;;18.15;43.29;103187.59;4897829;29;20388;-72
2021/10/11 03:58:48;;;;;;;12.57;5.82;;;;;;;18.05;43.67;103185.00;4880860;29;20087;-72
2021/10/11 04:01:14;;;;;;;18.08;4.40;;;;;;;18.18;43.32;103177.84;4897836;29;20032;-72
2021/10/11 04:03:40;;;;;;;13.70;5.32;;;;;;;18.15;43.24;103178.47;4897647;29;20032;-72
2021/10/11 04:06:06;;;;;;;24.08;6.85;;;;;;;18.12;43.20;103182.66;4897276;29;20080;-71
2021/10/11 04:08:37;;;;;;;16.02;4.75;;;;;;;18.08;43.50;103176.09;4897674;29;20510;-77
2021/10/11 04:11:10;;;;;;;15.30;4.60;;;;;;;18.17;43.13;103170.66;4897512;29;20024;-72
2021/10/11 04:13:37;;;;;;;15.77;5.13;;;;;;;18.09;43.52;103174.97;4897610;29;20025;-73
2021/10/11 04:16:04;;;;;;;11.35;4.72;;;;;;;18.13;43.28;103180.69;4897483;29;20036;-72
2021/10/11 04:18:29;;;;;;;13.73;5.25;;;;;;;18.07;43.32;103187.47;4897614;29;20040;-72
2021/10/11 04:20:55;;;;;;;15.35;4.80;;;;;;;17.97;43.66;103185.69;4880737;29;20033;-72
2021/10/11 04:23:21;;;;;;;13.15;4.57;;;;;;;18.13;43.27;103194.53;4880565;29;20116;-72
2021/10/11 04:25:47;;;;;;;19.70;4.88;;;;;;;18.06;43.32;103191.34;4880760;29;20036;-85
2021/10/11 04:28:15;;;;;;;14.85;4.32;;;;;;;18.18;43.06;103181.44;4897319;29;20487;-78
2021/10/11 04:30:41;;;;;;;15.60;4.57;;;;;;;18.25;43.12;103189.31;4897431;29;20055;-71
2021/10/11 04:33:07;;;;;;;15.05;4.78;;;;;;;18.24;43.19;103188.50;4897475;29;20021;-72
2021/10/11 04:35:32;;;;;;;14.15;4.95;;;;;;;18.16;43.51;103192.00;4897682;29;20035;-71
2021/10/11 04:37:58;;;;;;;12.80;4.45;;;;;;;18.21;43.28;103200.22;4897333;29;20028;-72
2021/10/11 04:40:24;;;;;;;20.27;6.13;;;;;;;18.20;43.18;103198.53;4897499;29;20029;-84
2021/10/11 04:42:50;;;;;;;21.20;5.00;;;;;;;18.16;43.42;103193.94;4897286;29;20057;-72
2021/10/11 04:45:16;;;;;;;17.52;4.57;;;;;;;18.19;43.17;103194.13;4897233;29;20029;-72
2021/10/11 04:47:41;;;;;;;20.23;6.30;;;;;;;18.09;43.64;103191.56;4897308;29;20033;-71
2021/10/11 04:50:07;;;;;;;12.55;4.75;;;;;;;18.03;43.74;103190.84;4880375;29;20039;-71
2021/10/11 04:52:33;;;;;;;16.33;5.28;;;;;;;18.03;43.85;103188.06;4897275;29;20025;-72
2021/10/11 04:54:59;;;;;;;15.50;4.10;;;;;;;18.05;43.84;103190.53;4899583;29;20104;-72
2021/10/11 04:57:24;;;;;;;15.35;4.50;;;;;;;18.03;43.88;103196.38;4900961;29;20079;-72
2021/10/11 04:59:50;;;;;;;18.35;4.93;;;;;;;18.01;43.84;103195.03;4900889;29;20040;-71
2021/10/11 05:02:16;;;;;;;10.98;4.18;;;;;;;18.07;43.79;103191.06;4900776;29;20061;-78
2021/10/11 05:04:42;;;;;;;20.77;5.43;;;;;;;17.92;44.05;103189.38;4900703;29;20502;-71
2021/10/11 05:07:08;;;;;;;12.32;4.38;;;;;;;17.96;43.83;103193.16;4900523;29;20053;-78
2021/10/11 05:09:33;;;;;;;13.52;4.40;;;;;;;17.86;44.06;103204.41;4900688;29;20107;-84
2021/10/11 05:11:59;;;;;;;17.42;4.53;;;;;;;17.89;44.14;103189.97;4883879;29;20111;-71
2021/10/11 05:14:25;;;;;;;17.77;4.75;;;;;;;17.85;44.07;103197.25;4900669;29;20029;-72
2021/10/11 05:16:52;;;;;;;13.48;4.57;;;;;;;17.79;44.32;103197.63;4900629;29;20069;-72
2021/10/11 05:19:24;;;;;;;16.27;4.13;;;;;;;17.95;43.99;103183.22;4900543;29;20443;-72
2021/10/11 05:21:50;;;;;;;13.98;4.13;;;;;;;17.94;43.67;103184.38;4883629;29;20025;-72
2021/10/11 05:24:17;;;;;;;16.15;4.90;;;;;;;18.05;43.45;103189.69;4900386;29;20129;-72
2021/10/11 05:26:42;;;;;;;12.18;4.47;;;;;;;18.08;43.38;103194.63;4900349;29;20021;-72
2021/10/11 05:29:08;;;;;;;16.08;5.03;;;;;;;18.03;43.63;103187.25;4900296;29;20503;-72
2021/10/11 05:31:34;;;;;;;12.25;4.60;;;;;;;17.90;43.89;103183.31;4900301;29;20025;-72
2021/10/11 05:33:59;;;;;;;14.57;3.97;;;;;;;18.06;43.65;103196.88;4900526;29;20168;-72
2021/10/11 05:36:25;;;;;;;10.73;4.13;;;;;;;18.09;43.57;103191.56;4900432;29;20544;-73
2021/10/11 05:38:51;;;;;;;17.38;4.15;;;;;;;18.08;43.46;103195.47;4900188;29;20089;-72
2021/10/11 05:41:17;;;;;;;17.80;5.40;;;;;;;18.10;43.46;103201.50;4883436;29;20020;-72
2021/10/11 05:43:42;;;;;;;16.60;4.30;;;;;;;18.01;43.69;103197.81;4900009;29;20383;-72
2021/10/11 05:46:08;;;;;;;19.05;4.68;;;;;;;17.95;43.79;103202.59;4899947;29;20032;-72
2021/10/11 05:48:33;;;;;;;11.77;3.90;;;;;;;17.86;44.03;103192.53;4900197;29;20544;-73
2021/10/11 05:50:59;;;;;;;11.20;3.55;;;;;;;17.85;43.78;103194.50;4899918;29;20037;-72
2021/10/11 05:53:25;;;;;;;16.17;4.45;;;;;;;17.90;43.80;103193.56;4900095;29;20032;-73
2021/10/11 05:55:50;;;;;;;14.10;4.35;;;;;;;17.98;43.54;103192.84;4899977;29;20116;-73
2021/10/11 05:58:16;;;;;;;12.85;3.67;;;;;;;17.79;44.22;103187.41;4899890;29;20037;-72
2021/10/11 06:00:42;;;;;;;18.52;4.82;;;;;;;17.80;44.07;103186.28;4900034;29;20198;-73
2021/10/11 06:03:09;;;;;;;23.77;4.72;;;;;;;17.93;43.59;103192.97;4899646;29;20064;-72
2021/10/11 06:05:35;;;;;;;13.45;3.83;;;;;;;17.98;43.62;103199.22;4899340;29;20041;-72
2021/10/11 06:08:00;;;;;;;13.18;3.78;;;;;;;17.88;43.89;103206.88;4899699;29;20029;-71
2021/10/11 06:10:26;;;;;;;13.15;4.30;;;;;;;18.11;43.41;103196.78;4882876;29;20119;-73
2021/10/11 06:12:52;;;;;;;17.67;5.40;;;;;;;17.99;43.64;103197.28;4899617;29;20052;-73
2021/10/11 06:15:19;;;;;;;11.40;3.88;;;;;;;17.95;43.67;103208.13;4899611;29;20044;-80
2021/10/11 06:17:45;;;;;;;10.35;3.20;;;;;;;17.95;43.86;103205.38;4899604;29;20095;-75
2021/10/11 06:20:11;;;;;;;16.02;4.80;;;;;;;17.87;44.05;103210.78;4899439;29;20455;-73
2021/10/11 06:22:37;;;;;;;13.68;4.38;;;;;;;17.98;43.54;103206.69;4899441;29;20068;-71
2021/10/11 06:25:04;;;;;;;15.95;4.82;;;;;;;18.06;43.73;103225.38;4882575;29;20032;-86
2021/10/11 06:27:30;;;;;;;16.23;3.78;;;;;;;17.98;43.69;103228.81;4882425;29;20041;-73
2021/10/11 06:29:56;;;;;;;14.18;3.85;;;;;;;17.97;43.50;103216.94;4899369;29;20535;-85
2021/10/11 06:32:22;;;;;;;11.25;3.70;;;;;;;17.99;43.87;103213.88;4899348;29;20112;-86
2021/10/11 06:34:48;;;;;;;15.02;3.47;;;;;;;18.00;43.64;103215.53;4899441;29;20060;-72
2021/10/11 06:37:14;;;;;;;15.65;4.05;;;;;;;18.06;43.65;103206.03;4899280;29;20115;-73
2021/10/11 06:39:39;;;;;;;13.77;4.22;;;;;;;17.90;44.07;103210.16;4899063;29;20032;-72
2021/10/11 06:42:05;;;;;;;16.90;4.55;;;;;;;17.98;43.90;103215.00;4882262;29;20115;-74
2021/10/11 06:44:31;;;;;;;16.27;5.05;;;;;;;17.91;44.16;103220.09;4898866;29;20133;-73
2021/10/11 06:46:57;;;;;;;18.52;3.65;;;;;;;18.02;43.80;103213.28;4898963;29;20029;-72
2021/10/11 06:49:23;;;;;;;16.05;4.30;;;;;;;17.99;44.01;103220.25;4898800;29;20060;-75
2021/10/11 06:51:50;;;;;;;11.05;3.72;;;;;;;17.97;43.85;103216.13;4898837;29;20487;-72
2021/10/11 06:54:15;;;;;;;17.25;4.50;;;;;;;18.01;43.57;103228.22;4898767;29;20043;-72
2021/10/11 06:56:41;;;;;;;13.68;4.35;;;;;;;17.95;44.00;103223.91;4898703;29;20058;-71
2021/10/11 06:59:06;;;;;;;15.25;5.05;;;;;;;17.90;44.18;103222.03;4899438;29;20032;-72
2021/10/11 07:01:32;;;;;;;18.17;4.93;;;;;;;17.88;44.36;103210.47;4899308;29;20033;-71
2021/10/11 07:03:58;;;;;;;9.10;3.67;;;;;;;17.92;43.95;103213.47;4898966;29;20043;-72
2021/10/11 07:06:25;;;;;;;11.82;3.70;;;;;;;17.92;43.97;103219.00;4898117;29;20098;-71
2021/10/11 07:08:51;;;;;;;11.55;4.78;;;;;;;17.87;44.27;103213.53;4886797;29;20120;-71
2021/10/11 07:11:16;;;;;;;10.48;3.67;;;;;;;17.83;44.29;103220.78;4882259;29;20107;-71
2021/10/11 07:13:42;;;;;;;13.50;3.65;;;;;;;17.87;44.36;103194.19;4890535;29;20084;-72
2021/10/11 07:16:07;;;;;;;12.27;3.58;;;;;;;17.88;44.19;103213.22;4898465;29;20029;-71
2021/10/11 07:18:34;;;;;;;14.52;4.13;;;;;;;17.90;44.23;103223.97;4898629;29;20025;-78
2021/10/11 07:21:04;;;;;;;14.35;3.88;;;;;;;18.00;44.01;103213.59;4898542;29;20036;-71
2021/10/11 07:23:31;;;;;;;13.77;4.25;;;;;;;17.96;44.07;103225.53;4898820;29;20395;-74
2021/10/11 07:26:01;;;;;;;12.82;3.72;;;;;;;17.92;44.38;103227.28;4898064;29;20040;-71
2021/10/11 07:28:28;;;;;;;15.60;4.68;;;;;;;17.97;44.06;103218.88;4896969;29;20032;-71
2021/10/11 07:30:54;;;;;;;13.25;3.67;;;;;;;18.14;44.05;103223.88;4897380;29;20037;-71
2021/10/11 07:33:23;;;;;;;9.13;4.72;;;;;;;18.06;44.01;103224.53;4897447;29;20040;-71
2021/10/11 07:35:49;;;;;;;12.85;4.53;;;;;;;18.17;43.75;103229.59;4898095;29;20443;-71
2021/10/11 07:38:15;;;;;;;10.55;3.50;;;;;;;18.15;43.71;103234.63;4897787;29;20428;-70
2021/10/11 07:40:41;;;;;;;10.95;3.83;;;;;;;18.25;43.66;103234.44;4897679;29;20032;-71
2021/10/11 07:43:06;;;;;;;13.23;4.63;;;;;;;18.24;43.63;103246.63;4897281;29;20051;-71
2021/10/11 07:45:32;;;;;;;11.05;4.35;;;;;;;18.30;43.50;103250.94;4895950;29;20381;-71
2021/10/11 07:47:58;;;;;;;10.90;4.10;;;;;;;18.24;43.80;103241.09;4896354;29;20558;-72
2021/10/11 07:50:24;;;;;;;14.35;4.05;;;;;;;18.30;43.87;103242.66;4879669;29;20115;-72
2021/10/11 07:52:49;;;;;;;12.63;4.07;;;;;;;18.37;43.87;103230.34;4896627;29;20032;-72
2021/10/11 07:55:15;;;;;;;11.45;4.55;;;;;;;18.23;44.05;103233.91;4895870;29;20036;-71
2021/10/11 07:57:41;;;;;;;11.48;4.75;;;;;;;18.29;44.07;103231.88;4897053;29;20036;-72
2021/10/11 08:00:10;;;;;;;12.38;4.53;;;;;;;18.33;44.03;103238.44;4897858;29;20466;-87
2021/10/11 08:02:36;;;;;;;9.00;4.38;;;;;;;18.41;43.89;103256.28;4898296;29;20076;-87
2021/10/11 08:05:02;;;;;;;9.93;3.88;;;;;;;18.46;43.84;103257.00;4898080;29;20060;-89
2021/10/11 08:07:28;;;;;;;17.20;4.38;;;;;;;18.46;43.95;103258.97;4897957;29;20052;-72
2021/10/11 08:09:53;;;;;;;11.65;3.28;;;;;;;18.45;43.85;103260.09;4897636;29;20085;-71
2021/10/11 08:12:19;;;;;;;9.32;3.95;;;;;;;18.54;43.70;103259.06;4897757;29;20467;-84
2021/10/11 08:14:44;;;;;;;9.18;3.85;;;;;;;18.55;43.51;103259.88;4897799;29;20384;-78
2021/10/11 08:17:11;;;;;;;10.63;4.80;;;;;;;18.48;43.80;103259.47;4881905;29;20475;-77
2021/10/11 08:19:37;;;;;;;8.85;3.92;;;;;;;18.56;43.72;103261.53;4897871;29;20035;-86
2021/10/11 08:22:04;;;;;;;12.05;3.90;;;;;;;18.45;44.06;103254.56;4881085;29;20037;-78
2021/10/11 08:24:33;;;;;;;12.18;3.72;;;;;;;18.23;44.63;103272.66;4897213;29;20076;-73
2021/10/11 08:26:59;;;;;;;34.80;4.77;;;;;;;18.28;44.56;103274.50;4897495;29;20088;-74
2021/10/11 08:29:25;;;;;;;12.88;4.20;;;;;;;18.48;43.90;103278.84;4899285;29;20267;-73
2021/10/11 08:31:55;;;;;;;14.90;4.30;;;;;;;18.42;44.42;103280.06;4890534;29;20044;-75
2021/10/11 08:34:20;;;;;;;8.55;3.83;;;;;;;18.58;44.22;103273.09;4890291;29;20028;-71
2021/10/11 08:36:46;;;;;;;6.90;3.08;;;;;;;18.67;44.21;103257.47;4890402;29;20041;-79
2021/10/11 08:39:11;;;;;;;14.75;5.22;;;;;;;18.89;43.81;103256.72;4888560;29;20028;-72
2021/10/11 08:41:38;;;;;;;12.18;4.07;;;;;;;18.91;44.18;103250.91;4891531;29;20036;-73
2021/10/11 08:44:04;;;;;;;8.82;3.60;;;;;;;18.91;44.34;103246.19;4891634;29;20029;-72
2021/10/11 08:46:29;;;;;;;9.73;3.92;;;;;;;19.00;44.24;103238.78;4872396;29;20041;-78
2021/10/11 08:48:55;;;;;;;12.48;4.00;;;;;;;19.13;44.29;103232.41;4892164;29;20033;-71
2021/10/11 08:51:22;;;;;;;7.90;2.92;;;;;;;19.24;44.20;103235.75;4889941;29;20132;-71
2021/10/11 08:53:51;;;;;;;7.60;2.97;;;;;;;19.12;44.55;103235.50;4891655;29;20431;-81
2021/10/11 08:56:17;;;;;;;11.93;4.38;;;;;;;19.41;44.16;103230.34;4873397;29;20116;-71
2021/10/11 08:58:47;;;;;;;9.02;2.83;;;;;;;19.49;44.28;103239.88;4891213;29;20108;-71
2021/10/11 09:01:13;;;;;;;12.02;3.55;;;;;;;19.62;44.18;103238.22;4890362;29;20028;-71
2021/10/11 09:03:40;;;;;;;9.65;3.25;;;;;;;19.50;44.46;103233.22;4889247;29;20029;-71
2021/10/11 09:06:10;;;;;;;14.85;4.22;;;;;;;19.74;43.99;103238.50;4890724;29;20384;-71
2021/10/11 09:08:36;;;;;;;;;;;;;;;19.54;44.37;103244.50;4891380;29;20032;-72
2021/10/11 09:11:10;;;;;;;12.73;3.45;;;;;;;19.61;44.05;103236.59;4889070;29;20010;-73
2021/10/11 09:13:43;;;;;;;9.95;3.55;;;;;;;19.68;44.13;103236.97;4889585;29;20028;-73
2021/10/11 09:16:18;;;;;;;12.70;3.15;;;;;;;19.66;44.17;103242.84;4889584;29;20029;-72
2021/10/11 09:18:56;;;;;;;16.13;5.38;;;;;;;19.65;44.31;103240.38;4872103;29;20413;-72
2021/10/11 09:21:32;;;;;;;16.10;4.57;;;;;;;19.71;44.05;103232.75;4888830;29;20017;-72
2021/10/11 09:24:21;;;;;;;10.23;3.05;;;;;;;19.86;43.70;103221.25;4889139;29;20028;-79
2021/10/11 09:26:50;;;;;;;12.98;3.55;;;;;;;20.09;43.17;103241.47;4871670;29;20029;-72
2021/10/11 09:29:31;;;;;;;8.80;2.90;;;;;;;20.18;43.45;103239.59;4873491;29;20033;-72
2021/10/11 09:32:05;;;;;;;9.45;2.78;;;;;;;20.20;43.46;103231.75;4891407;29;20028;-72
2021/10/11 09:34:32;;;;;;;10.60;4.00;;;;;;;20.22;43.56;103235.03;4892018;29;20168;-73
2021/10/11 09:37:03;;;;;;;13.45;3.38;;;;;;;20.49;43.14;103234.88;4890014;29;20031;-72
2021/10/11 09:39:30;;;;;;;16.85;4.25;;;;;;;20.68;42.78;103233.78;4889218;29;20112;-73
2021/10/11 09:41:57;;;;;;;11.48;2.90;;;;;;;20.54;43.14;103233.91;4890131;29;20032;-72
2021/10/11 09:44:23;;;;;;;14.90;3.92;;;;;;;20.60;43.26;103229.03;4891216;29;20061;-72
2021/10/11 09:49:25;;;;;;;18.10;4.57;;;;;;;20.65;43.36;103234.44;4891311;29;20025;-73
2021/10/11 09:51:56;;;;;;;7.93;3.00;;;;;;;20.85;43.12;103225.50;4889856;29;20472;-73
2021/10/11 09:54:23;;;;;;;23.88;3.60;;;;;;;21.02;42.83;103221.94;4891743;29;20135;-74
2021/10/11 09:56:49;;;;;;;21.58;5.03;;;;;;;20.94;43.42;103215.25;4880085;29;20041;-73
2021/10/11 09:59:16;;;;;;;16.95;4.93;;;;;;;20.99;43.51;103228.16;4879396;29;20080;-73
2021/10/11 10:01:43;;;;;;;10.07;3.25;;;;;;;21.13;43.09;103225.22;4879780;29;20035;-73
2021/10/11 10:04:24;;;;;;;15.05;4.30;;;;;;;21.29;42.99;103224.44;4862966;29;20048;-73
2021/10/11 10:06:53;;;;;;;14.02;4.22;;;;;;;21.25;42.84;103222.63;4879946;29;20124;-73
2021/10/11 10:09:20;;;;;;;19.83;4.57;;;;;;;21.57;42.35;103219.38;4880299;29;20041;-73
2021/10/11 10:11:47;;;;;;;9.85;2.67;;;;;;;21.49;42.67;103219.38;4880460;29;20029;-72
2021/10/11 10:14:24;;;;;;;16.73;4.53;;;;;;;21.56;42.58;103217.75;4880884;29;20160;-74
2021/10/11 10:16:50;;;;;;;10.98;3.05;;;;;;;21.47;42.66;103225.28;4879103;29;20096;-73
2021/10/11 10:19:16;;;;;;;16.60;4.38;;;;;;;21.55;42.52;103227.25;4879193;29;20033;-71
2021/10/11 10:21:42;;;;;;;16.73;4.72;;;;;;;21.64;42.62;103220.84;4879606;29;20036;-72
2021/10/11 10:24:08;;;;;;;15.80;5.00;;;;;;;21.81;42.34;103215.25;4879713;29;20112;-72
2021/10/11 10:26:35;;;;;;;9.60;3.42;;;;;;;21.89;42.47;103211.63;4879317;29;20025;-82
2021/10/11 10:29:19;;;;;;;17.77;4.38;;;;;;;22.16;42.46;103207.69;4862890;29;20033;-73
2021/10/11 10:31:45;;;;;;;10.32;3.58;;;;;;;22.34;41.92;103208.41;4880440;29;20025;-72
2021/10/11 10:34:26;;;;;;;12.68;4.72;;;;;;;22.34;41.93;103217.59;4879287;29;20093;-72
2021/10/11 10:37:08;;;;;;;12.27;4.03;;;;;;;22.43;42.13;103212.78;4880525;29;20029;-72
2021/10/11 10:39:40;;;;;;;13.20;4.03;;;;;;;22.55;41.75;103214.06;4880432;29;20025;-72
2021/10/11 10:42:08;;;;;;;12.27;3.92;;;;;;;22.68;41.83;103221.38;4880390;29;20029;-72
2021/10/11 10:44:43;;;;;;;14.18;4.70;;;;;;;22.50;41.80;103219.81;4880219;29;20029;-73
2021/10/11 10:47:09;;;;;;;13.48;4.63;;;;;;;22.47;42.51;103212.94;4880435;29;20025;-73
2021/10/11 10:49:43;;;;;;;11.13;3.92;;;;;;;22.78;41.58;103209.84;4880239;29;20032;-72
2021/10/11 10:52:12;;;;;;;16.42;3.80;;;;;;;22.42;42.51;103211.16;4879469;29;20499;-73
2021/10/11 10:54:43;;;;;;;9.68;2.65;;;;;;;22.49;42.13;103213.44;4880179;29;20060;-78
2021/10/11 10:57:13;;;;;;;14.40;3.35;;;;;;;23.06;40.93;103218.53;4880366;29;20475;-73
2021/10/11 10:59:48;;;;;;;10.13;3.53;;;;;;;22.81;41.83;103219.47;4880064;29;20025;-74
2021/10/11 11:02:14;;;;;;;14.35;3.67;;;;;;;23.22;40.79;103211.19;4880068;29;20040;-73
2021/10/11 11:04:51;;;;;;;10.60;3.33;;;;;;;23.37;40.96;103211.75;4879925;29;20029;-73
2021/10/11 11:07:21;;;;;;;9.23;4.45;;;;;;;23.41;40.83;103212.69;4879823;29;20105;-70
2021/10/11 11:09:47;;;;;;;12.27;3.20;;;;;;;23.50;40.72;103207.81;4879988;29;20025;-71
2021/10/11 11:12:14;;;;;;;11.52;4.10;;;;;;;23.40;40.72;103208.25;4879823;29;20128;-71
2021/10/11 11:14:44;;;;;;;12.50;3.03;;;;;;;23.56;40.50;103197.28;4879761;29;20025;-71
2021/10/11 11:17:13;;;;;;;;;;;;;;;23.78;40.05;103203.31;4880195;29;20037;-70
2021/10/11 11:19:42;;;;;;;14.80;3.40;;;;;;;23.87;39.75;103191.25;4879867;29;19916;-71